createdAt,value
2022-08-02T00:00:30.405Z,13.20
2022-08-02T00:02:58.462Z,12.27
2022-08-02T00:05:26.700Z,13.50
2022-08-02T00:07:54.780Z,16.15
2022-08-02T00:10:22.847Z,12.50
2022-08-02T00:12:51.001Z,15.02
2022-08-02T00:15:22.726Z,14.50
2022-08-02T00:17:50.824Z,16.95
2022-08-02T00:20:18.916Z,13.90
2022-08-02T00:22:47.000Z,13.68
2022-08-02T00:25:15.032Z,12.55
2022-08-02T00:27:43.139Z,15.43
2022-08-02T00:30:12.125Z,14.25
2022-08-02T00:32:41.582Z,15.77
2022-08-02T00:35:10.505Z,13.00
2022-08-02T00:37:41.007Z,18.42
2022-08-02T00:40:10.630Z,14.73
2022-08-02T00:42:39.588Z,14.23
2022-08-02T00:45:08.887Z,16.30
2022-08-02T00:47:36.937Z,14.70
2022-08-02T00:50:07.289Z,20.02
2022-08-02T00:52:35.396Z,15.57
2022-08-02T00:55:03.577Z,16.33
2022-08-02T00:57:31.631Z,18.85
2022-08-02T00:59:59.690Z,17.88
2022-08-02T01:02:27.783Z,16.63
2022-08-02T01:04:55.853Z,14.23
2022-08-02T01:07:25.318Z,16.67
2022-08-02T01:09:53.517Z,14.90
2022-08-02T01:12:21.829Z,15.27
2022-08-02T01:14:52.082Z,14.77
2022-08-02T01:17:27.006Z,13.85
2022-08-02T01:20:01.469Z,18.95
2022-08-02T01:23:03.575Z,15.30
2022-08-02T01:25:51.580Z,15.25
2022-08-02T01:28:38.969Z,14.65
2022-08-02T01:31:17.650Z,14.23
2022-08-02T01:33:49.764Z,15.55
2022-08-02T01:36:20.224Z,18.30
2022-08-02T01:38:50.733Z,16.45
2022-08-02T01:41:22.496Z,16.35
2022-08-02T01:43:56.688Z,18.42
2022-08-02T01:46:26.557Z,14.85
2022-08-02T01:48:57.386Z,16.67
2022-08-02T01:51:42.121Z,16.23
2022-08-02T01:54:12.988Z,14.48
2022-08-02T01:56:42.986Z,16.38
2022-08-02T01:59:15.397Z,16.05
2022-08-02T02:01:45.053Z,15.00
2022-08-02T02:04:14.615Z,15.02
2022-08-02T02:06:44.437Z,17.80
2022-08-02T02:09:13.640Z,16.90
2022-08-02T02:12:09.478Z,19.50
2022-08-02T02:14:35.979Z,25.88
2022-08-02T02:17:05.730Z,18.50
2022-08-02T02:19:37.057Z,17.70
2022-08-02T02:22:05.320Z,16.00
2022-08-02T02:24:36.004Z,18.40
2022-08-02T02:27:08.916Z,15.10
2022-08-02T02:29:44.952Z,18.05
2022-08-02T02:32:15.222Z,18.90
2022-08-02T02:34:46.487Z,17.73
2022-08-02T02:37:18.756Z,22.13
2022-08-02T02:39:48.476Z,16.67
2022-08-02T02:42:18.720Z,16.77
2022-08-02T02:44:49.599Z,19.63
2022-08-02T02:47:20.063Z,16.02
2022-08-02T02:49:49.317Z,20.88
2022-08-02T02:52:19.173Z,15.82
2022-08-02T02:54:49.876Z,22.17
2022-08-02T02:57:19.622Z,18.20
2022-08-02T02:59:49.993Z,19.15
2022-08-02T03:02:19.397Z,19.05
2022-08-02T03:04:56.173Z,17.60
2022-08-02T03:07:26.297Z,18.05
2022-08-02T03:09:55.237Z,23.70
2022-08-02T03:12:30.917Z,22.45
2022-08-02T03:15:04.062Z,22.27
2022-08-02T03:17:43.406Z,26.23
2022-08-02T03:20:13.421Z,18.45
2022-08-02T03:22:42.020Z,17.05
2022-08-02T03:25:11.485Z,16.88
2022-08-02T03:27:39.957Z,18.63
2022-08-02T03:30:12.654Z,19.17
2022-08-02T03:32:42.384Z,16.88
2022-08-02T03:35:13.143Z,17.00
2022-08-02T03:37:42.747Z,18.38
2022-08-02T03:40:13.646Z,15.25
2022-08-02T03:42:42.858Z,13.80
2022-08-02T03:45:14.788Z,15.15
2022-08-02T03:47:43.589Z,25.77
2022-08-02T03:50:13.505Z,17.42
2022-08-02T03:52:43.651Z,14.80
2022-08-02T03:55:12.731Z,14.48
2022-08-02T03:57:41.832Z,12.85
2022-08-02T04:00:14.398Z,12.02
2022-08-02T04:02:42.604Z,11.50
2022-08-02T04:05:10.875Z,14.35
2022-08-02T04:08:33.081Z,9.85
2022-08-02T04:10:27.232Z,10.77
2022-08-02T04:12:56.298Z,14.30
2022-08-02T04:15:26.346Z,16.08
2022-08-02T04:17:57.720Z,11.48
2022-08-02T04:20:29.473Z,10.10
2022-08-02T04:23:02.624Z,8.95
2022-08-02T04:25:34.459Z,11.50
2022-08-02T04:28:17.643Z,9.82
2022-08-02T04:30:49.275Z,9.27
2022-08-02T04:33:18.056Z,11.35
2022-08-02T04:35:46.397Z,11.10
2022-08-02T04:38:15.826Z,9.23
2022-08-02T04:40:52.372Z,9.88
2022-08-02T04:43:20.941Z,8.93
2022-08-02T04:45:52.596Z,10.02
2022-08-02T04:48:21.233Z,8.10
2022-08-02T04:50:49.762Z,11.90
2022-08-02T04:53:18.107Z,8.68
2022-08-02T04:55:46.392Z,9.18
2022-08-02T04:58:38.842Z,11.73
2022-08-02T05:01:04.055Z,15.05
2022-08-02T05:03:32.292Z,10.52
2022-08-02T05:06:00.737Z,7.60
2022-08-02T05:08:28.833Z,6.32
2022-08-02T05:10:56.859Z,11.85
2022-08-02T05:13:25.752Z,8.75
2022-08-02T05:15:53.802Z,14.00
2022-08-02T05:18:23.241Z,9.48
2022-08-02T05:20:54.049Z,7.82
2022-08-02T05:23:26.005Z,7.25
2022-08-02T05:25:54.160Z,6.82
2022-08-02T05:28:22.171Z,8.20
2022-08-02T05:30:50.434Z,7.15
2022-08-02T05:33:18.982Z,6.75
2022-08-02T05:35:48.445Z,7.78
2022-08-02T05:38:16.528Z,10.23
2022-08-02T05:40:54.510Z,6.05
2022-08-02T05:43:24.364Z,6.80
2022-08-02T05:45:54.564Z,8.77
2022-08-02T05:48:27.643Z,6.20
2022-08-02T05:51:05.512Z,10.18
2022-08-02T05:53:39.988Z,9.02
2022-08-02T05:56:18.552Z,10.48
2022-08-02T05:58:54.053Z,6.75
2022-08-02T06:01:29.458Z,8.07
2022-08-02T06:04:00.580Z,7.88
2022-08-02T06:06:33.041Z,9.25
2022-08-02T06:09:04.131Z,6.63
2022-08-02T06:11:37.223Z,5.60
2022-08-02T06:14:06.668Z,11.23
2022-08-02T06:16:37.652Z,7.68
2022-08-02T06:19:12.759Z,4.32
2022-08-02T06:22:34.964Z,5.15
2022-08-02T06:24:33.763Z,3.33
2022-08-02T06:27:03.173Z,5.05
2022-08-02T06:29:38.372Z,5.10
2022-08-02T06:32:08.981Z,4.32
2022-08-02T06:34:39.252Z,5.18
2022-08-02T06:37:15.590Z,6.93
2022-08-02T06:39:46.823Z,4.65
2022-08-02T06:42:27.032Z,5.20
2022-08-02T06:44:57.931Z,7.40
2022-08-02T06:47:26.548Z,4.30
2022-08-02T06:49:55.094Z,3.83
2022-08-02T06:52:30.144Z,5.18
2022-08-02T06:54:59.523Z,4.68
2022-08-02T06:57:27.685Z,5.70
2022-08-02T06:59:55.933Z,4.10
2022-08-02T07:02:24.185Z,4.70
2022-08-02T07:04:52.408Z,3.90
2022-08-02T07:07:20.571Z,3.88
2022-08-02T07:10:00.275Z,4.20
2022-08-02T07:12:30.838Z,5.07
2022-08-02T07:14:59.656Z,8.45
2022-08-02T07:17:27.822Z,5.07
2022-08-02T07:19:56.021Z,2.72
2022-08-02T07:22:24.677Z,4.65
2022-08-02T07:24:55.246Z,4.18
2022-08-02T07:27:23.421Z,3.83
2022-08-02T07:29:51.721Z,3.05
2022-08-02T07:32:20.930Z,7.70
2022-08-02T07:34:52.585Z,2.83
2022-08-02T07:37:53.079Z,6.53
2022-08-02T07:40:15.307Z,4.50
2022-08-02T07:42:49.818Z,3.28
2022-08-02T07:45:17.924Z,3.05
2022-08-02T07:47:46.531Z,3.88
2022-08-02T07:50:16.193Z,2.88
2022-08-02T07:52:45.726Z,3.40
2022-08-02T07:55:16.377Z,5.57
2022-08-02T07:57:46.816Z,2.75
2022-08-02T08:00:17.286Z,3.78
2022-08-02T08:02:46.512Z,1.88
2022-08-02T08:05:15.474Z,5.78
2022-08-02T08:07:43.549Z,4.03
2022-08-02T08:10:12.024Z,3.38
2022-08-02T08:12:41.443Z,4.80
2022-08-02T08:15:10.483Z,6.38
2022-08-02T08:17:38.921Z,4.28
2022-08-02T08:20:08.852Z,4.22
2022-08-02T08:22:38.144Z,2.88
2022-08-02T08:25:07.097Z,3.85
2022-08-02T08:27:35.215Z,3.85
2022-08-02T08:30:05.733Z,4.32
2022-08-02T08:32:33.871Z,3.05
2022-08-02T08:35:03.683Z,3.33
2022-08-02T08:37:35.463Z,6.82
2022-08-02T08:40:04.985Z,8.25
2022-08-02T08:42:33.877Z,5.60
2022-08-02T08:45:02.029Z,4.65
2022-08-02T08:47:37.546Z,2.78
2022-08-02T08:50:08.285Z,3.75
2022-08-02T08:52:42.765Z,5.32
2022-08-02T08:55:12.861Z,3.75
2022-08-02T08:57:43.165Z,2.50
2022-08-02T09:00:13.993Z,8.57
2022-08-02T09:02:44.805Z,8.05
2022-08-02T09:05:15.656Z,4.20
2022-08-02T09:07:45.176Z,5.80
2022-08-02T09:10:36.145Z,3.70
2022-08-02T09:13:31.208Z,6.82
2022-08-02T09:16:12.023Z,5.70
2022-08-02T09:18:46.088Z,2.63
2022-08-02T09:21:16.224Z,4.53
2022-08-02T09:23:46.934Z,5.15
2022-08-02T09:26:16.281Z,6.18
2022-08-02T09:28:46.476Z,4.75
2022-08-02T09:31:16.117Z,5.35
2022-08-02T09:33:51.395Z,5.32
2022-08-02T09:36:19.511Z,4.00
2022-08-02T09:38:55.794Z,3.50
2022-08-02T09:41:24.920Z,4.13
2022-08-02T09:44:05.184Z,4.95
2022-08-02T09:46:38.470Z,6.05
2022-08-02T09:49:10.471Z,4.20
2022-08-02T09:51:40.632Z,3.65
2022-08-02T09:54:11.842Z,4.20
2022-08-02T09:56:49.569Z,6.47
2022-08-02T09:59:19.133Z,5.57
2022-08-02T10:01:51.658Z,3.90
2022-08-02T10:04:31.644Z,3.88
2022-08-02T10:07:04.162Z,6.57
2022-08-02T10:09:33.413Z,4.10
2022-08-02T10:12:03.508Z,4.88
2022-08-02T10:14:35.209Z,2.60
2022-08-02T10:17:05.129Z,3.10
2022-08-02T10:20:00.507Z,6.15
2022-08-02T10:22:25.459Z,2.80
2022-08-02T10:24:54.802Z,6.93
2022-08-02T10:27:25.176Z,4.25
2022-08-02T10:29:56.022Z,5.78
2022-08-02T10:32:29.715Z,3.45
2022-08-02T10:35:02.722Z,3.65
2022-08-02T10:37:51.844Z,3.50
2022-08-02T10:40:26.911Z,5.70
2022-08-02T10:42:59.345Z,4.85
2022-08-02T10:45:29.386Z,4.63
2022-08-02T10:48:06.177Z,7.38
2022-08-02T10:51:05.651Z,10.40
2022-08-02T10:53:34.723Z,5.30
2022-08-02T10:56:05.902Z,8.20
2022-08-02T10:58:37.440Z,4.55
2022-08-02T11:01:06.989Z,3.65
2022-08-02T11:03:42.882Z,7.20
2022-08-02T11:06:25.720Z,7.97
2022-08-02T11:09:32.276Z,3.95
2022-08-02T11:12:04.079Z,4.13
2022-08-02T11:14:33.688Z,3.55
2022-08-02T11:17:10.220Z,4.15
2022-08-02T11:20:19.239Z,4.43
2022-08-02T11:22:50.868Z,3.80
2022-08-02T11:26:02.122Z,4.35
2022-08-02T11:28:25.239Z,5.18
2022-08-02T11:31:02.758Z,3.35
2022-08-02T11:33:36.065Z,2.97
2022-08-02T11:36:06.653Z,6.30
2022-08-02T11:38:36.581Z,3.58
2022-08-02T11:41:05.962Z,3.70
2022-08-02T11:43:38.479Z,2.63
2022-08-02T11:46:13.256Z,4.43
2022-08-02T11:48:42.474Z,2.75
2022-08-02T11:51:14.588Z,5.50
2022-08-02T11:53:45.995Z,5.35
2022-08-02T11:56:22.353Z,5.28
2022-08-02T11:59:03.844Z,4.60
2022-08-02T12:01:36.753Z,9.18
2022-08-02T12:04:19.285Z,4.82
2022-08-02T12:06:56.866Z,7.22
2022-08-02T12:09:27.924Z,3.13
2022-08-02T12:11:57.810Z,6.85
2022-08-02T12:14:27.864Z,2.50
2022-08-02T12:17:14.348Z,6.20
2022-08-02T12:19:43.491Z,4.97
2022-08-02T12:22:14.961Z,4.80
2022-08-02T12:24:48.218Z,4.28
2022-08-02T12:27:36.813Z,3.17
2022-08-02T12:30:08.439Z,4.38
2022-08-02T12:32:36.966Z,7.07
2022-08-02T12:35:26.414Z,8.98
2022-08-02T12:37:55.284Z,6.57
2022-08-02T12:40:27.043Z,4.40
2022-08-02T12:42:58.476Z,9.32
2022-08-02T12:45:36.501Z,3.40
2022-08-02T12:48:08.264Z,5.43
2022-08-02T12:50:37.908Z,5.63
2022-08-02T12:53:08.200Z,3.38
2022-08-02T12:55:59.957Z,5.50
2022-08-02T12:58:29.567Z,5.38
2022-08-02T13:00:59.823Z,3.55
2022-08-02T13:04:09.108Z,5.68
2022-08-02T13:06:42.275Z,3.55
2022-08-02T13:09:13.524Z,6.22
2022-08-02T13:11:44.349Z,5.13
2022-08-02T13:14:13.219Z,2.65
2022-08-02T13:16:41.680Z,4.20
2022-08-02T13:19:09.763Z,5.90
2022-08-02T13:21:40.770Z,6.78
2022-08-02T13:24:38.651Z,8.85
2022-08-02T13:27:10.004Z,4.40
2022-08-02T13:29:38.420Z,5.18
2022-08-02T13:32:06.857Z,5.35
2022-08-02T13:34:34.922Z,5.95
2022-08-02T13:37:03.026Z,6.22
2022-08-02T13:39:31.197Z,7.00
2022-08-02T13:41:59.296Z,4.07
2022-08-02T13:44:28.752Z,5.22
2022-08-02T13:46:56.832Z,4.28
2022-08-02T13:49:51.349Z,3.22
2022-08-02T13:52:13.658Z,4.38
2022-08-02T13:54:41.936Z,4.25
2022-08-02T13:57:09.966Z,3.70
2022-08-02T13:59:57.375Z,3.20
2022-08-02T14:02:28.192Z,4.88
2022-08-02T14:04:56.585Z,6.05
2022-08-02T14:07:24.713Z,4.80
2022-08-02T14:09:52.832Z,5.95
2022-08-02T14:12:20.939Z,3.78
2022-08-02T14:14:50.543Z,3.45
2022-08-02T14:17:19.231Z,3.72
2022-08-02T14:19:47.343Z,3.92
2022-08-02T14:22:15.394Z,2.90
2022-08-02T14:24:43.646Z,2.50
2022-08-02T14:27:11.720Z,3.08
2022-08-02T14:29:39.821Z,7.20
2022-08-02T14:32:10.159Z,4.15
2022-08-02T14:34:38.516Z,3.35
2022-08-02T14:37:06.584Z,6.65
2022-08-02T14:39:42.852Z,3.20
2022-08-02T14:42:22.702Z,2.30
2022-08-02T14:44:50.722Z,4.55
2022-08-02T14:47:20.163Z,7.15
2022-08-02T14:49:50.270Z,8.80
2022-08-02T14:52:19.116Z,7.32
2022-08-02T14:54:47.355Z,3.67
2022-08-02T14:57:15.617Z,3.70
2022-08-02T14:59:43.809Z,3.50
2022-08-02T15:02:13.731Z,5.07
2022-08-02T15:04:44.030Z,5.85
2022-08-02T15:07:13.913Z,7.22
2022-08-02T15:09:42.184Z,7.05
2022-08-02T15:12:11.905Z,9.38
2022-08-02T15:14:40.675Z,3.22
2022-08-02T15:17:09.486Z,20.75
2022-08-02T15:19:56.142Z,5.72
2022-08-02T15:22:26.665Z,4.60
2022-08-02T15:24:54.728Z,4.00
2022-08-02T15:27:22.807Z,5.40
2022-08-02T15:29:51.095Z,6.07
2022-08-02T15:32:19.910Z,4.55
2022-08-02T15:34:48.330Z,4.03
2022-08-02T15:37:16.729Z,2.72
2022-08-02T15:39:46.463Z,7.85
2022-08-02T15:42:15.007Z,11.02
2022-08-02T15:44:44.973Z,3.63
2022-08-02T15:47:13.440Z,4.65
2022-08-02T15:49:41.943Z,7.13
2022-08-02T15:52:11.232Z,4.13
2022-08-02T15:54:39.671Z,4.75
2022-08-02T15:57:09.187Z,2.90
2022-08-02T15:59:37.268Z,4.45
2022-08-02T16:02:07.022Z,14.05
2022-08-02T16:04:35.167Z,8.68
2022-08-02T16:07:03.304Z,5.15
2022-08-02T16:09:31.370Z,4.47
2022-08-02T16:11:59.424Z,3.55
2022-08-02T16:14:29.546Z,5.60
2022-08-02T16:16:57.607Z,5.57
2022-08-02T16:19:45.873Z,3.53
2022-08-02T16:22:14.064Z,4.75
2022-08-02T16:24:42.414Z,3.35
2022-08-02T16:27:10.480Z,3.15
2022-08-02T16:29:39.921Z,2.70
2022-08-02T16:32:08.128Z,5.75
2022-08-02T16:35:04.034Z,3.08
2022-08-02T16:37:24.347Z,2.60
2022-08-02T16:39:52.490Z,8.73
2022-08-02T16:42:25.379Z,4.05
2022-08-02T16:44:55.205Z,5.43
2022-08-02T16:47:36.968Z,3.72
2022-08-02T16:50:11.746Z,7.25
2022-08-02T16:52:41.297Z,3.05
2022-08-02T16:55:11.278Z,6.32
2022-08-02T16:57:43.297Z,7.30
2022-08-02T17:00:16.314Z,6.60
2022-08-02T17:02:44.540Z,9.85
2022-08-02T17:05:15.550Z,4.78
2022-08-02T17:08:15.289Z,5.70
2022-08-02T17:10:34.398Z,3.28
2022-08-02T17:13:11.479Z,2.88
2022-08-02T17:16:08.100Z,6.53
2022-08-02T17:18:30.214Z,9.27
2022-08-02T17:20:58.466Z,4.05
2022-08-02T17:24:04.124Z,6.45
2022-08-02T17:26:14.857Z,5.65
2022-08-02T17:29:14.351Z,3.80
2022-08-02T17:31:42.991Z,6.07
2022-08-02T17:34:12.907Z,4.95
2022-08-02T17:36:44.703Z,5.75
2022-08-02T17:39:17.917Z,5.05
2022-08-02T17:41:49.076Z,10.18
2022-08-02T17:44:36.857Z,4.55
2022-08-02T17:47:11.434Z,5.80
2022-08-02T17:49:47.786Z,5.38
2022-08-02T17:52:51.597Z,4.22
2022-08-02T17:55:05.566Z,8.07
2022-08-02T17:57:56.929Z,6.28
2022-08-02T18:00:22.042Z,6.53
2022-08-02T18:02:55.036Z,8.48
2022-08-02T18:05:36.248Z,23.13
2022-08-02T18:08:08.696Z,14.88
2022-08-02T18:10:37.122Z,5.72
2022-08-02T18:13:05.352Z,12.00
2022-08-02T18:15:33.531Z,10.02
2022-08-02T18:18:02.946Z,6.65
2022-08-02T18:20:31.012Z,13.82
2022-08-02T18:22:59.247Z,8.18
2022-08-02T18:25:37.508Z,10.73
2022-08-02T18:28:14.112Z,6.25
2022-08-02T18:30:42.180Z,8.18
2022-08-02T18:33:59.416Z,7.25
2022-08-02T18:35:59.743Z,10.25
2022-08-02T18:38:30.286Z,15.40
2022-08-02T18:41:02.222Z,7.47
2022-08-02T18:43:32.242Z,8.63
2022-08-02T18:46:15.921Z,7.47
2022-08-02T18:48:47.921Z,6.38
2022-08-02T18:51:18.980Z,8.73
2022-08-02T18:53:51.242Z,5.18
2022-08-02T18:56:39.757Z,6.40
2022-08-02T18:59:08.002Z,7.68
2022-08-02T19:01:46.569Z,7.90
2022-08-02T19:04:26.974Z,10.13
2022-08-02T19:06:55.325Z,9.02
2022-08-02T19:09:23.936Z,9.10
2022-08-02T19:11:51.996Z,8.85
2022-08-02T19:14:27.231Z,6.97
2022-08-02T19:16:56.472Z,7.32
2022-08-02T19:19:28.847Z,12.85
2022-08-02T19:22:17.207Z,8.98
2022-08-02T19:24:46.106Z,13.02
2022-08-02T19:27:15.077Z,8.80
2022-08-02T19:29:51.015Z,12.13
2022-08-02T19:32:42.324Z,14.63
2022-08-02T19:35:19.526Z,13.60
2022-08-02T19:38:09.314Z,16.20
2022-08-02T19:40:38.883Z,12.48
2022-08-02T19:44:23.108Z,16.08
2022-08-02T19:46:01.296Z,12.68
2022-08-02T19:48:30.034Z,11.95
2022-08-02T19:51:01.894Z,11.52
2022-08-02T19:53:47.703Z,16.08
2022-08-02T19:56:20.240Z,14.55
2022-08-02T20:01:42.149Z,11.80
2022-08-02T20:04:14.022Z,14.02
2022-08-02T20:06:46.188Z,12.40
2022-08-02T20:09:17.157Z,8.32
2022-08-02T20:11:54.870Z,10.98
2022-08-02T20:14:26.900Z,9.90
2022-08-02T20:16:55.601Z,11.40
2022-08-02T20:19:25.008Z,9.07
2022-08-02T20:21:59.912Z,10.25
2022-08-02T20:24:29.502Z,14.02
2022-08-02T20:26:59.314Z,14.75
2022-08-02T20:29:43.245Z,12.27
2022-08-02T20:32:22.606Z,11.57
2022-08-02T20:34:51.043Z,11.10
2022-08-02T20:38:00.674Z,18.10
2022-08-02T20:40:16.977Z,13.48
2022-08-02T20:42:45.726Z,12.80
2022-08-02T20:45:16.260Z,13.52
2022-08-02T20:47:45.779Z,14.32
2022-08-02T20:50:32.552Z,12.70
2022-08-02T20:53:02.018Z,15.63
2022-08-02T20:55:31.965Z,10.75
2022-08-02T20:58:02.215Z,16.10
2022-08-02T21:00:31.897Z,15.55
2022-08-02T21:03:00.202Z,18.23
2022-08-02T21:05:43.711Z,12.57
2022-08-02T21:08:21.265Z,19.48
2022-08-02T21:10:51.835Z,14.80
2022-08-02T21:13:24.191Z,15.48
2022-08-02T21:15:54.992Z,13.55
2022-08-02T21:18:35.900Z,17.50
2022-08-02T21:21:09.217Z,12.90
2022-08-02T21:23:48.288Z,11.82
2022-08-02T21:26:25.735Z,15.48
2022-08-02T21:28:56.679Z,17.08
2022-08-02T21:31:29.819Z,16.20
2022-08-02T21:34:00.749Z,13.07
2022-08-02T21:36:30.793Z,17.65
2022-08-02T21:41:50.454Z,12.48
2022-08-02T21:44:19.890Z,18.70
2022-08-02T21:46:49.254Z,13.13
2022-08-02T21:49:18.366Z,15.45
2022-08-02T21:51:49.652Z,15.73
2022-08-02T21:54:21.201Z,11.88
2022-08-02T21:56:52.323Z,13.18
2022-08-02T21:59:25.222Z,16.33
2022-08-02T22:01:56.695Z,14.65
2022-08-02T22:04:25.864Z,12.70
2022-08-02T22:06:55.182Z,15.77
2022-08-02T22:09:43.543Z,14.00
2022-08-02T22:12:17.590Z,14.18
2022-08-02T22:15:03.817Z,12.38
2022-08-02T22:17:51.517Z,14.93
2022-08-02T22:20:21.282Z,13.60
2022-08-02T22:22:50.366Z,15.80
2022-08-02T22:25:26.465Z,11.88
2022-08-02T22:28:35.861Z,12.52
2022-08-02T22:30:53.657Z,11.82
2022-08-02T22:33:46.892Z,12.07
2022-08-02T22:36:28.437Z,14.13
2022-08-02T22:38:56.972Z,12.60
2022-08-02T22:42:01.344Z,12.80
2022-08-02T22:44:14.811Z,11.10
2022-08-02T22:46:45.091Z,14.45
2022-08-02T22:49:17.632Z,14.50
2022-08-02T22:52:02.173Z,12.93
2022-08-02T22:54:30.346Z,13.48
2022-08-02T22:57:01.456Z,12.85
2022-08-02T22:59:07.626Z,17.23
2022-08-02T22:59:38.907Z,15.95
2022-08-02T23:02:08.316Z,14.50
2022-08-02T23:04:36.646Z,14.45
2022-08-02T23:07:04.947Z,13.52
2022-08-02T23:09:33.062Z,19.92
2022-08-02T23:12:02.489Z,18.90
2022-08-02T23:14:30.590Z,13.95
2022-08-02T23:17:16.201Z,18.52
2022-08-02T23:19:53.229Z,18.75
2022-08-02T23:22:29.537Z,13.75
2022-08-02T23:25:00.917Z,16.85
2022-08-02T23:27:30.392Z,13.65
2022-08-02T23:29:59.215Z,12.95
2022-08-02T23:32:27.435Z,14.23
2022-08-02T23:34:55.643Z,13.60
2022-08-02T23:37:24.085Z,15.35
2022-08-02T23:39:52.415Z,15.25
2022-08-02T23:42:20.514Z,13.60
2022-08-02T23:44:49.946Z,11.05
2022-08-02T23:47:18.009Z,12.75
2022-08-02T23:49:46.250Z,14.77
2022-08-02T23:52:14.797Z,15.52
2022-08-02T23:54:42.986Z,18.98
2022-08-02T23:57:20.865Z,14.25
2022-08-02T23:59:51.767Z,13.25
